Time;durP1;ratioP1;P1;durP2;ratioP2;P2;SDS_P1;SDS_P2;PMS_P1;PMS_P2;Temp;Humidity;BMP_temperature;BMP_pressure;BME280_temperature;BME280_humidity;BME280_pressure;Samples;Min_cycle;Max_cycle;Signal;HPM_P1;HPM_P2
2022/11/27 00:01:19;;;;;;;;;20.25;18.50;;;;;-147.17;100.00;-15917.19;5051345;28;52850;-45
2022/11/27 00:03:45;;;;;;;;;18.50;17.25;;;;;-147.17;100.00;-15917.19;5052862;28;50965;-46
2022/11/27 00:06:16;;;;;;;;;19.75;17.50;;;;;-147.17;100.00;-15917.19;5053636;28;51477;-46
2022/11/27 00:08:43;;;;;;;;;17.00;17.00;;;;;-147.17;100.00;-15917.19;5051029;28;53015;-45
2022/11/27 00:11:14;;;;;;;;;18.50;18.00;;;;;-147.17;100.00;-15917.19;5052719;28;51128;-46
2022/11/27 00:13:40;;;;;;;;;16.00;16.00;;;;;-147.17;100.00;-15917.19;5049822;28;51048;-46
2022/11/27 00:16:06;;;;;;;;;19.75;17.25;;;;;-147.17;100.00;-15917.19;5052975;28;51448;-47
2022/11/27 00:18:32;;;;;;;;;19.00;18.25;;;;;-147.17;100.00;-15917.19;5052657;28;51329;-45
2022/11/27 00:21:03;;;;;;;;;17.50;17.50;;;;;-147.17;100.00;-15917.19;5051073;28;51180;-45
2022/11/27 00:23:28;;;;;;;;;14.50;14.00;;;;;-147.17;100.00;-15917.19;5035156;28;51307;-46
2022/11/27 00:25:54;;;;;;;;;14.25;13.75;;;;;-147.17;100.00;-15917.19;5049578;28;51164;-46
2022/11/27 00:28:19;;;;;;;;;16.00;14.00;;;;;-147.17;100.00;-15917.19;5030394;28;53495;-48
2022/11/27 00:30:45;;;;;;;;;13.75;12.75;;;;;-147.17;100.00;-15917.19;5031163;28;51213;-46
2022/11/27 00:33:11;;;;;;;;;19.25;18.25;;;;;-147.17;100.00;-15917.19;5051741;28;51525;-46
2022/11/27 00:35:39;;;;;;;;;16.75;13.50;;;;;-147.17;100.00;-15917.19;5052171;28;50975;-47
2022/11/27 00:38:05;;;;;;;;;21.25;18.00;;;;;-147.17;100.00;-15917.19;5051014;28;51242;-49
2022/11/27 00:40:31;;;;;;;;;16.25;14.00;;;;;-147.17;100.00;-15917.19;5051441;28;51222;-46
2022/11/27 00:42:56;;;;;;;;;15.00;13.75;;;;;-147.17;100.00;-15917.19;5052573;28;51286;-45
2022/11/27 00:45:22;;;;;;;;;17.50;16.25;;;;;-147.17;100.00;-15917.19;5052841;28;51339;-45
2022/11/27 00:47:47;;;;;;;;;17.50;15.50;;;;;-147.17;100.00;-15917.19;5051839;28;52066;-46
2022/11/27 00:50:13;;;;;;;;;16.00;14.75;;;;;-147.17;100.00;-15917.19;5052036;28;51117;-46
2022/11/27 00:52:38;;;;;;;;;16.25;14.50;;;;;-147.17;100.00;-15917.19;5052239;28;51352;-48
2022/11/27 00:55:04;;;;;;;;;13.50;12.00;;;;;-147.17;100.00;-15917.19;5051138;28;51056;-46
2022/11/27 00:57:29;;;;;;;;;17.50;17.00;;;;;-147.17;100.00;-15917.19;5050756;28;51914;-45
2022/11/27 00:59:55;;;;;;;;;16.00;13.25;;;;;-147.17;100.00;-15917.19;5051942;28;51097;-46
2022/11/27 01:02:20;;;;;;;;;16.00;14.00;;;;;-147.17;100.00;-15917.19;5051051;28;51503;-45
2022/11/27 01:04:47;;;;;;;;;13.75;13.50;;;;;-147.17;100.00;-15917.19;5050957;28;51346;-46
2022/11/27 01:07:12;;;;;;;;;16.75;13.00;;;;;-147.17;100.00;-15917.19;5049987;28;52150;-46
2022/11/27 01:09:38;;;;;;;;;21.00;21.00;;;;;-147.17;100.00;-15917.19;5048988;28;51156;-45
2022/11/27 01:12:03;;;;;;;;;16.25;14.25;;;;;-147.17;100.00;-15917.19;5052350;28;51259;-45
2022/11/27 01:14:29;;;;;;;;;16.75;14.25;;;;;-147.17;100.00;-15917.19;5050672;28;51255;-47
2022/11/27 01:16:54;;;;;;;;;17.75;16.50;;;;;-147.17;100.00;-15917.19;5033877;28;53227;-45
2022/11/27 01:19:20;;;;;;;;;18.00;13.50;;;;;-147.17;100.00;-15917.19;5051713;28;51073;-46
2022/11/27 01:21:46;;;;;;;;;16.75;13.25;;;;;-147.17;100.00;-15917.19;5051965;28;51018;-47
2022/11/27 01:24:13;;;;;;;;;16.75;15.50;;;;;-147.17;100.00;-15917.19;5051579;28;51405;-48
2022/11/27 01:26:39;;;;;;;;;12.00;8.00;;;;;-147.17;100.00;-15917.19;5032303;28;51946;-46
2022/11/27 01:29:05;;;;;;;;;17.75;17.25;;;;;-147.17;100.00;-15917.19;5042168;28;51034;-47
2022/11/27 01:31:32;;;;;;;;;15.50;13.75;;;;;-147.17;100.00;-15917.19;5051492;28;51204;-45
2022/11/27 01:34:00;;;;;;;;;13.00;12.00;;;;;-147.17;100.00;-15917.19;5050832;28;51028;-45
2022/11/27 01:36:26;;;;;;;;;16.00;14.75;;;;;-147.17;100.00;-15917.19;5050086;28;51308;-47
2022/11/27 01:38:52;;;;;;;;;16.00;16.00;;;;;-147.17;100.00;-15917.19;5050918;28;51101;-46
2022/11/27 01:41:18;;;;;;;;;16.25;13.00;;;;;-147.17;100.00;-15917.19;5040806;28;51081;-48
2022/11/27 01:43:50;;;;;;;;;16.75;14.50;;;;;-147.17;100.00;-15917.19;5050773;28;51199;-45
2022/11/27 01:46:27;;;;;;;;;13.25;11.50;;;;;-147.17;100.00;-15917.19;5049702;28;51880;-47
2022/11/27 01:49:15;;;;;;;;;16.00;13.00;;;;;-147.17;100.00;-15917.19;5050184;28;50950;-46
2022/11/27 01:51:49;;;;;;;;;15.50;13.25;;;;;-147.17;100.00;-15917.19;5041825;28;51401;-46
2022/11/27 01:54:17;;;;;;;;;13.00;11.00;;;;;-147.17;100.00;-15917.19;5051711;28;51029;-46
2022/11/27 01:56:47;;;;;;;;;12.00;9.50;;;;;-147.17;100.00;-15917.19;5051751;28;52199;-46
2022/11/27 01:59:14;;;;;;;;;13.50;12.75;;;;;-147.17;100.00;-15917.19;5033427;28;51133;-46
2022/11/27 02:01:40;;;;;;;;;12.00;12.00;;;;;-147.17;100.00;-15917.19;5045285;28;51147;-46
2022/11/27 02:04:05;;;;;;;;;12.00;9.25;;;;;-147.17;100.00;-15917.19;5047507;28;51207;-45
2022/11/27 02:06:30;;;;;;;;;12.75;12.75;;;;;-147.17;100.00;-15917.19;5051240;28;52238;-46
2022/11/27 02:08:56;;;;;;;;;13.00;13.00;;;;;-147.17;100.00;-15917.19;5052342;28;50970;-45
2022/11/27 02:11:44;;;;;;;;;15.50;12.25;;;;;-147.17;100.00;-15917.19;5049347;28;50986;-45
2022/11/27 02:14:35;;;;;;;;;11.25;11.25;;;;;-147.17;100.00;-15917.19;5050295;28;51026;-47
2022/11/27 02:17:21;;;;;;;;;12.75;11.25;;;;;-147.17;100.00;-15917.19;5049758;28;51916;-45
2022/11/27 02:20:05;;;;;;;;;13.50;12.50;;;;;-147.17;100.00;-15917.19;5046028;28;50983;-46
2022/11/27 02:22:55;;;;;;;;;10.75;10.25;;;;;-147.17;100.00;-15917.19;5049483;28;51142;-46
2022/11/27 02:25:48;;;;;;;;;12.25;12.00;;;;;-147.17;100.00;-15917.19;5049387;28;50944;-46
2022/11/27 02:28:50;;;;;;;;;22.00;16.75;;;;;-147.17;100.00;-15917.19;5050750;28;52128;-47
2022/11/27 02:31:23;;;;;;;;;12.00;12.00;;;;;-147.17;100.00;-15917.19;5046941;28;51199;-46
2022/11/27 02:33:54;;;;;;;;;13.25;11.75;;;;;-147.17;100.00;-15917.19;5047542;28;51317;-45
2022/11/27 02:36:25;;;;;;;;;12.50;12.00;;;;;-147.17;100.00;-15917.19;5046323;28;52591;-46
2022/11/27 02:39:04;;;;;;;;;13.50;12.00;;;;;-147.17;100.00;-15917.19;5050552;28;51195;-46
2022/11/27 02:41:38;;;;;;;;;12.25;8.25;;;;;-147.17;100.00;-15917.19;5050880;28;51144;-48
2022/11/27 02:44:06;;;;;;;;;12.50;11.75;;;;;-147.17;100.00;-15917.19;5051500;28;50986;-47
2022/11/27 02:46:32;;;;;;;;;12.50;11.75;;;;;-147.17;100.00;-15917.19;5050410;28;51084;-45
2022/11/27 02:49:05;;;;;;;;;8.75;8.00;;;;;-147.17;100.00;-15917.19;5049457;28;51995;-45
2022/11/27 02:51:56;;;;;;;;;11.75;11.00;;;;;-147.17;100.00;-15917.19;5046766;28;51054;-46
2022/11/27 02:54:28;;;;;;;;;7.75;7.50;;;;;-147.17;100.00;-15917.19;5038468;28;51009;-51
2022/11/27 02:56:58;;;;;;;;;7.50;7.00;;;;;-147.17;100.00;-15917.19;5051629;28;50938;-45
2022/11/27 02:59:27;;;;;;;;;11.50;10.25;;;;;-147.17;100.00;-15917.19;5045990;28;51078;-46
2022/11/27 03:01:56;;;;;;;;;12.00;11.50;;;;;-147.17;100.00;-15917.19;5050472;28;51242;-47
2022/11/27 03:04:27;;;;;;;;;10.00;9.00;;;;;-147.17;100.00;-15917.19;5051902;28;51445;-46
2022/11/27 03:06:58;;;;;;;;;11.00;8.50;;;;;-147.17;100.00;-15917.19;5053530;28;51054;-46
2022/11/27 03:09:46;;;;;;;;;9.00;9.00;;;;;-147.17;100.00;-15917.19;5056087;28;51175;-46
2022/11/27 03:12:14;;;;;;;;;10.25;10.00;;;;;-147.17;100.00;-15917.19;5049543;28;51030;-49
2022/11/27 03:14:41;;;;;;;;;12.25;11.00;;;;;-147.17;100.00;-15917.19;5052779;28;51148;-45
2022/11/27 03:17:16;;;;;;;;;11.00;9.50;;;;;-147.17;100.00;-15917.19;5054846;28;51150;-47
2022/11/27 03:19:55;;;;;;;;;24.25;24.00;;;;;-147.17;100.00;-15917.19;5054695;28;51140;-46
2022/11/27 03:22:20;;;;;;;;;11.50;8.50;;;;;-147.17;100.00;-15917.19;5054556;28;51142;-46
2022/11/27 03:24:48;;;;;;;;;8.75;8.25;;;;;-147.17;100.00;-15917.19;5052703;28;51184;-46
2022/11/27 03:27:18;;;;;;;;;7.00;7.00;;;;;-147.17;100.00;-15917.19;5055492;28;50967;-47
2022/11/27 03:29:48;;;;;;;;;11.50;8.75;;;;;-147.17;100.00;-15917.19;5053309;28;51156;-47
2022/11/27 03:32:14;;;;;;;;;7.75;7.75;;;;;-147.17;100.00;-15917.19;5053466;28;51063;-48
2022/11/27 03:34:40;;;;;;;;;7.00;7.00;;;;;-147.17;100.00;-15917.19;5036463;28;51034;-47
2022/11/27 03:37:05;;;;;;;;;8.50;8.00;;;;;-147.17;100.00;-15917.19;5054620;28;51316;-47
2022/11/27 03:39:32;;;;;;;;;12.75;9.75;;;;;-147.17;100.00;-15917.19;5054172;28;52966;-48
2022/11/27 03:42:15;;;;;;;;;9.25;9.00;;;;;-147.17;100.00;-15917.19;5054298;28;50963;-47
2022/11/27 03:44:46;;;;;;;;;7.25;7.00;;;;;-147.17;100.00;-15917.19;5054765;28;51201;-46
2022/11/27 03:47:36;;;;;;;;;11.75;9.50;;;;;-147.17;100.00;-15917.19;5053815;28;51061;-47
2022/11/27 03:50:45;;;;;;;;;9.50;8.25;;;;;-147.17;100.00;-15917.19;5057310;28;51156;-49
2022/11/27 03:53:41;;;;;;;;;11.50;9.50;;;;;-147.17;100.00;-15917.19;5051076;28;51153;-46
2022/11/27 03:56:24;;;;;;;;;11.25;11.25;;;;;-147.17;100.00;-15917.19;5052991;28;51291;-48
2022/11/27 03:58:54;;;;;;;;;8.75;8.75;;;;;-147.17;100.00;-15917.19;5053850;28;51048;-47
2022/11/27 04:01:26;;;;;;;;;9.50;9.50;;;;;-147.17;100.00;-15917.19;5050612;28;52306;-48
2022/11/27 04:03:52;;;;;;;;;10.50;8.75;;;;;-147.17;100.00;-15917.19;5054629;28;51094;-50
2022/11/27 04:06:17;;;;;;;;;12.00;9.50;;;;;-147.17;100.00;-15917.19;5049309;28;51056;-47
2022/11/27 04:08:45;;;;;;;;;7.00;7.00;;;;;-147.17;100.00;-15917.19;5055286;28;51458;-47
2022/11/27 04:11:10;;;;;;;;;12.00;11.00;;;;;-147.17;100.00;-15917.19;5055094;28;52875;-47
2022/11/27 04:13:36;;;;;;;;;11.25;10.25;;;;;-147.17;100.00;-15917.19;5057971;28;51115;-47
2022/11/27 04:16:01;;;;;;;;;12.00;11.00;;;;;-147.17;100.00;-15917.19;5056720;28;51063;-47
2022/11/27 04:18:27;;;;;;;;;9.50;8.50;;;;;-147.17;100.00;-15917.19;5056748;28;51338;-47
2022/11/27 04:20:52;;;;;;;;;9.25;9.25;;;;;-147.17;100.00;-15917.19;5049659;28;52385;-47
2022/11/27 04:23:17;;;;;;;;;7.00;7.00;;;;;-147.17;100.00;-15917.19;5036124;28;50875;-46
2022/11/27 04:25:43;;;;;;;;;8.50;7.75;;;;;-147.17;100.00;-15917.19;5054396;28;51086;-51
2022/11/27 04:28:08;;;;;;;;;8.50;8.00;;;;;-147.17;100.00;-15917.19;5054269;28;51405;-47
2022/11/27 04:30:34;;;;;;;;;8.75;8.75;;;;;-147.17;100.00;-15917.19;5052983;28;51243;-45
2022/11/27 04:32:59;;;;;;;;;8.25;7.50;;;;;-147.17;100.00;-15917.19;5052471;28;51048;-46
2022/11/27 04:35:25;;;;;;;;;8.50;8.00;;;;;-147.17;100.00;-15917.19;5053010;28;50997;-46
2022/11/27 04:37:50;;;;;;;;;9.00;8.25;;;;;-147.17;100.00;-15917.19;5053737;28;51402;-47
2022/11/27 04:40:15;;;;;;;;;7.25;6.50;;;;;-147.17;100.00;-15917.19;5053593;28;52374;-47
2022/11/27 04:42:41;;;;;;;;;9.75;7.25;;;;;-147.17;100.00;-15917.19;5053273;28;50869;-45
2022/11/27 04:45:07;;;;;;;;;8.25;7.50;;;;;-147.17;100.00;-15917.19;5053736;28;51024;-46
2022/11/27 04:47:32;;;;;;;;;6.25;4.50;;;;;-147.17;100.00;-15917.19;5053274;28;51304;-46
2022/11/27 04:49:58;;;;;;;;;12.50;11.25;;;;;-147.17;100.00;-15917.19;5055152;28;51718;-49
2022/11/27 04:52:23;;;;;;;;;10.00;8.75;;;;;-147.17;100.00;-15917.19;5051684;28;50973;-47
2022/11/27 04:54:48;;;;;;;;;9.00;8.00;;;;;-147.17;100.00;-15917.19;5050859;28;51112;-47
2022/11/27 04:57:14;;;;;;;;;7.75;7.75;;;;;-147.17;100.00;-15917.19;5053791;28;51174;-48
2022/11/27 04:59:39;;;;;;;;;10.00;8.00;;;;;-147.17;100.00;-15917.19;5055152;28;51164;-47
2022/11/27 05:02:05;;;;;;;;;8.25;8.25;;;;;-147.17;100.00;-15917.19;5047518;28;51353;-46
2022/11/27 05:04:30;;;;;;;;;9.00;8.00;;;;;-147.17;100.00;-15917.19;5051942;28;51027;-46
2022/11/27 05:06:56;;;;;;;;;10.00;7.25;;;;;-147.17;100.00;-15917.19;5053560;28;51230;-47
2022/11/27 05:09:21;;;;;;;;;8.50;8.50;;;;;-147.17;100.00;-15917.19;5035197;28;54081;-49
2022/11/27 05:11:46;;;;;;;;;7.75;7.25;;;;;-147.17;100.00;-15917.19;5052895;28;51028;-47
2022/11/27 05:14:15;;;;;;;;;11.00;9.00;;;;;-147.17;100.00;-15917.19;5051567;28;51152;-47
2022/11/27 05:16:55;;;;;;;;;6.50;6.00;;;;;-147.17;100.00;-15917.19;5053306;28;51381;-47
2022/11/27 05:19:23;;;;;;;;;12.25;9.25;;;;;-147.17;100.00;-15917.19;5053068;28;51164;-44
2022/11/27 05:21:49;;;;;;;;;7.75;6.50;;;;;-147.17;100.00;-15917.19;5051654;28;51152;-45
2022/11/27 05:24:17;;;;;;;;;9.25;8.75;;;;;-147.17;100.00;-15917.19;5053838;28;51112;-45
2022/11/27 05:26:42;;;;;;;;;8.25;8.00;;;;;-147.17;100.00;-15917.19;5048607;28;51394;-47
2022/11/27 05:29:09;;;;;;;;;6.00;6.00;;;;;-147.17;100.00;-15917.19;5055612;28;51647;-46
2022/11/27 05:31:35;;;;;;;;;8.75;8.00;;;;;-147.17;100.00;-15917.19;5041159;28;51080;-46
2022/11/27 05:34:01;;;;;;;;;10.50;9.00;;;;;-147.17;100.00;-15917.19;5053071;28;50994;-45
2022/11/27 05:36:27;;;;;;;;;6.00;6.00;;;;;-147.17;100.00;-15917.19;5051618;28;50966;-48
2022/11/27 05:38:52;;;;;;;;;7.75;6.75;;;;;-147.17;100.00;-15917.19;5052055;28;52193;-47
2022/11/27 05:41:18;;;;;;;;;10.75;9.25;;;;;-147.17;100.00;-15917.19;5052702;28;50970;-46
2022/11/27 05:43:44;;;;;;;;;7.75;7.75;;;;;-147.17;100.00;-15917.19;5052480;28;51020;-47
2022/11/27 05:46:13;;;;;;;;;9.75;8.50;;;;;-147.17;100.00;-15917.19;5051123;28;51372;-47
2022/11/27 05:48:38;;;;;;;;;9.00;8.25;;;;;-147.17;100.00;-15917.19;5050551;28;52229;-48
2022/11/27 05:51:04;;;;;;;;;9.75;9.75;;;;;-147.17;100.00;-15917.19;5052406;28;51099;-46
2022/11/27 05:53:29;;;;;;;;;4.50;4.00;;;;;-147.17;100.00;-15917.19;5033785;28;51168;-48
2022/11/27 05:56:05;;;;;;;;;9.50;8.00;;;;;-147.17;100.00;-15917.19;5052165;28;51078;-53
2022/11/27 05:58:30;;;;;;;;;10.25;9.25;;;;;-147.17;100.00;-15917.19;5051710;28;51447;-47
2022/11/27 06:00:56;;;;;;;;;12.75;8.50;;;;;-147.17;100.00;-15917.19;5054973;28;51105;-46
2022/11/27 06:03:22;;;;;;;;;10.25;9.25;;;;;-147.17;100.00;-15917.19;5052539;28;50958;-47
2022/11/27 06:05:47;;;;;;;;;7.50;7.50;;;;;-147.17;100.00;-15917.19;5052794;28;51010;-45
2022/11/27 06:08:13;;;;;;;;;6.75;6.25;;;;;-147.17;100.00;-15917.19;5050544;28;52092;-45
2022/11/27 06:10:39;;;;;;;;;9.00;8.25;;;;;-147.17;100.00;-15917.19;5052126;28;50930;-45
2022/11/27 06:13:04;;;;;;;;;8.50;8.25;;;;;-147.17;100.00;-15917.19;5051206;28;50989;-49
2022/11/27 06:15:30;;;;;;;;;9.50;8.00;;;;;-147.17;100.00;-15917.19;5051764;28;51154;-46
2022/11/27 06:17:55;;;;;;;;;11.25;8.00;;;;;-147.17;100.00;-15917.19;5051428;28;51300;-47
2022/11/27 06:20:21;;;;;;;;;8.00;8.00;;;;;-147.17;100.00;-15917.19;5052680;28;50907;-47
2022/11/27 06:22:46;;;;;;;;;11.00;9.00;;;;;-147.17;100.00;-15917.19;5046999;28;51140;-47
2022/11/27 06:25:11;;;;;;;;;8.50;8.25;;;;;-147.17;100.00;-15917.19;5052636;28;51087;-49
2022/11/27 06:27:37;;;;;;;;;7.00;7.00;;;;;-147.17;100.00;-15917.19;5054863;28;51076;-47
2022/11/27 06:30:03;;;;;;;;;8.25;7.50;;;;;-147.17;100.00;-15917.19;5051365;28;51164;-47
2022/11/27 06:32:29;;;;;;;;;8.75;8.50;;;;;-147.17;100.00;-15917.19;5053810;28;52320;-47
2022/11/27 06:34:54;;;;;;;;;11.00;10.00;;;;;-147.17;100.00;-15917.19;5048292;28;51199;-49
2022/11/27 06:37:20;;;;;;;;;8.00;8.00;;;;;-147.17;100.00;-15917.19;5051856;28;51142;-46
2022/11/27 06:39:47;;;;;;;;;10.00;10.00;;;;;-147.17;100.00;-15917.19;5051658;28;51132;-45
2022/11/27 06:42:13;;;;;;;;;7.75;7.00;;;;;-147.17;100.00;-15917.19;5035842;28;51272;-46
2022/11/27 06:44:38;;;;;;;;;8.75;7.50;;;;;-147.17;100.00;-15917.19;5053612;28;51410;-47
2022/11/27 06:47:03;;;;;;;;;9.00;8.00;;;;;-147.17;100.00;-15917.19;5053992;28;51173;-46
2022/11/27 06:49:29;;;;;;;;;12.25;10.75;;;;;-147.17;100.00;-15917.19;5054807;28;51119;-46
2022/11/27 06:51:54;;;;;;;;;8.00;8.00;;;;;-147.17;100.00;-15917.19;5054977;28;51075;-46
2022/11/27 06:54:19;;;;;;;;;8.25;8.25;;;;;-147.17;100.00;-15917.19;5054101;28;51226;-47
2022/11/27 06:56:48;;;;;;;;;12.00;9.25;;;;;-147.17;100.00;-15917.19;5051010;28;51846;-47
2022/11/27 06:59:13;;;;;;;;;12.00;9.00;;;;;-147.17;100.00;-15917.19;5051271;28;51195;-47
2022/11/27 07:01:39;;;;;;;;;9.25;8.50;;;;;-147.17;100.00;-15917.19;5053763;28;51036;-47
2022/11/27 07:04:04;;;;;;;;;8.00;7.50;;;;;-147.17;100.00;-15917.19;5051594;28;51274;-45
2022/11/27 07:06:30;;;;;;;;;8.25;8.00;;;;;-147.17;100.00;-15917.19;5044562;28;52879;-49
2022/11/27 07:08:55;;;;;;;;;8.00;7.50;;;;;-147.17;100.00;-15917.19;5051928;28;51128;-45
2022/11/27 07:11:27;;;;;;;;;12.00;11.00;;;;;-147.17;100.00;-15917.19;5053679;28;51117;-45
2022/11/27 07:13:55;;;;;;;;;9.75;8.00;;;;;-147.17;100.00;-15917.19;5051170;28;51116;-46
2022/11/27 07:16:20;;;;;;;;;10.50;9.00;;;;;-147.17;100.00;-15917.19;5051015;28;52249;-47
2022/11/27 07:18:52;;;;;;;;;8.25;7.75;;;;;-147.17;100.00;-15917.19;5051835;28;50993;-46
2022/11/27 07:21:17;;;;;;;;;10.75;8.00;;;;;-147.17;100.00;-15917.19;5050479;28;51242;-45
2022/11/27 07:23:43;;;;;;;;;8.00;7.00;;;;;-147.17;100.00;-15917.19;5051699;28;51378;-46
2022/11/27 07:26:15;;;;;;;;;13.00;10.50;;;;;-147.17;100.00;-15917.19;5050291;28;52012;-48
2022/11/27 07:28:44;;;;;;;;;8.50;8.00;;;;;-147.17;100.00;-15917.19;5051264;28;51244;-45
2022/11/27 07:31:11;;;;;;;;;7.25;7.25;;;;;-147.17;100.00;-15917.19;5048973;28;51395;-46
2022/11/27 07:33:36;;;;;;;;;10.50;9.00;;;;;-147.17;100.00;-15917.19;5049653;28;51307;-46
2022/11/27 07:36:34;;;;;;;;;12.00;11.00;;;;;-147.17;100.00;-15917.19;5050613;28;51941;-45
2022/11/27 07:38:59;;;;;;;;;13.50;9.25;;;;;-147.17;100.00;-15917.19;5006813;28;51089;-46
2022/11/27 07:41:25;;;;;;;;;11.25;9.00;;;;;-147.17;100.00;-15917.19;5050733;28;51155;-46
2022/11/27 07:43:50;;;;;;;;;12.25;8.75;;;;;-147.17;100.00;-15917.19;5049941;28;51113;-46
2022/11/27 07:46:19;;;;;;;;;11.00;9.75;;;;;-147.17;100.00;-15917.19;5051391;28;52067;-46
2022/11/27 07:48:45;;;;;;;;;12.00;11.00;;;;;-147.17;100.00;-15917.19;5054720;28;51229;-47
2022/11/27 07:51:13;;;;;;;;;10.00;9.50;;;;;-147.17;100.00;-15917.19;5058072;28;51156;-46
2022/11/27 07:53:40;;;;;;;;;11.50;9.75;;;;;-147.17;100.00;-15917.19;5032604;28;51257;-46
2022/11/27 07:56:06;;;;;;;;;11.25;9.00;;;;;-147.17;100.00;-15917.19;5036159;28;51969;-47
2022/11/27 07:58:32;;;;;;;;;11.00;9.75;;;;;-147.17;100.00;-15917.19;5053845;28;51099;-45
2022/11/27 08:00:57;;;;;;;;;12.75;10.25;;;;;-147.17;100.00;-15917.19;5053753;28;51160;-46
2022/11/27 08:03:23;;;;;;;;;8.25;7.75;;;;;-147.17;100.00;-15917.19;5055679;28;51062;-47
2022/11/27 08:05:48;;;;;;;;;13.25;12.75;;;;;-147.17;100.00;-15917.19;5051883;28;51150;-46
2022/11/27 08:08:14;;;;;;;;;11.25;10.75;;;;;-147.17;100.00;-15917.19;5052726;28;50960;-49
2022/11/27 08:10:39;;;;;;;;;12.00;12.00;;;;;-147.17;100.00;-15917.19;5053997;28;51028;-48
2022/11/27 08:13:05;;;;;;;;;11.00;10.75;;;;;-147.17;100.00;-15917.19;5051150;28;50990;-47
2022/11/27 08:15:31;;;;;;;;;13.50;12.50;;;;;-147.17;100.00;-15917.19;5053041;28;52621;-48
2022/11/27 08:17:57;;;;;;;;;13.25;11.00;;;;;-147.17;100.00;-15917.19;5052908;28;51283;-47
2022/11/27 08:20:22;;;;;;;;;11.75;10.25;;;;;-147.17;100.00;-15917.19;5054372;28;50940;-46
2022/11/27 08:22:48;;;;;;;;;12.50;11.00;;;;;-147.17;100.00;-15917.19;5054586;28;50914;-49
2022/11/27 08:25:13;;;;;;;;;9.00;8.00;;;;;-147.17;100.00;-15917.19;5055026;28;51824;-46
2022/11/27 08:27:39;;;;;;;;;11.75;11.25;;;;;-147.17;100.00;-15917.19;5052336;28;51988;-45
2022/11/27 08:30:05;;;;;;;;;14.50;11.25;;;;;-147.17;100.00;-15917.19;5044352;28;51158;-47
2022/11/27 08:32:31;;;;;;;;;9.00;9.00;;;;;-147.17;100.00;-15917.19;5050260;28;51154;-48
2022/11/27 08:34:57;;;;;;;;;11.25;10.50;;;;;-147.17;100.00;-15917.19;5043216;28;52353;-47
2022/11/27 08:37:22;;;;;;;;;11.00;11.00;;;;;-147.17;100.00;-15917.19;5048804;28;51373;-48
2022/11/27 08:39:47;;;;;;;;;11.00;9.00;;;;;-147.17;100.00;-15917.19;5047700;28;51020;-45
2022/11/27 08:42:13;;;;;;;;;11.75;11.50;;;;;-147.17;100.00;-15917.19;5035307;28;51106;-46
2022/11/27 08:44:38;;;;;;;;;13.00;13.00;;;;;-147.17;100.00;-15917.19;5052693;28;51128;-45
2022/11/27 08:47:03;;;;;;;;;13.50;12.50;;;;;-147.17;100.00;-15917.19;5053288;28;51068;-48
2022/11/27 08:49:29;;;;;;;;;11.75;9.00;;;;;-147.17;100.00;-15917.19;5041132;28;51691;-50
2022/11/27 08:51:54;;;;;;;;;12.00;10.50;;;;;-147.17;100.00;-15917.19;5059550;28;51020;-48
2022/11/27 08:54:20;;;;;;;;;9.50;8.75;;;;;-147.17;100.00;-15917.19;5032301;28;53952;-46
2022/11/27 08:56:45;;;;;;;;;11.00;9.00;;;;;-147.17;100.00;-15917.19;5024134;28;51037;-46
2022/11/27 08:59:10;;;;;;;;;9.50;9.50;;;;;-147.17;100.00;-15917.19;5053417;28;51243;-46
2022/11/27 09:01:36;;;;;;;;;13.00;11.75;;;;;-147.17;100.00;-15917.19;5052013;28;51201;-49
2022/11/27 09:04:01;;;;;;;;;16.00;13.00;;;;;-147.17;100.00;-15917.19;5053598;28;53436;-49
2022/11/27 09:06:30;;;;;;;;;13.00;13.00;;;;;-147.17;100.00;-15917.19;5031852;28;51006;-45
2022/11/27 09:08:56;;;;;;;;;15.00;13.75;;;;;-147.17;100.00;-15917.19;5051409;28;51171;-47
2022/11/27 09:11:22;;;;;;;;;12.50;12.25;;;;;-147.17;100.00;-15917.19;5052849;28;51392;-45
2022/11/27 09:13:47;;;;;;;;;12.50;11.75;;;;;-147.17;100.00;-15917.19;5017132;28;52831;-46
2022/11/27 09:16:15;;;;;;;;;13.50;12.25;;;;;-147.17;100.00;-15917.19;5053150;28;50992;-45
2022/11/27 09:18:44;;;;;;;;;13.75;12.50;;;;;-147.17;100.00;-15917.19;5055849;28;51041;-46
2022/11/27 09:21:11;;;;;;;;;11.50;11.50;;;;;-147.17;100.00;-15917.19;5053142;28;51372;-47
2022/11/27 09:23:37;;;;;;;;;12.00;12.00;;;;;-147.17;100.00;-15917.19;5045331;28;52398;-47
2022/11/27 09:26:09;;;;;;;;;15.50;12.50;;;;;-147.17;100.00;-15917.19;5026872;28;51520;-53
2022/11/27 09:28:35;;;;;;;;;10.25;9.00;;;;;-147.17;100.00;-15917.19;5052035;28;51098;-46
2022/11/27 09:31:02;;;;;;;;;11.25;11.00;;;;;-147.17;100.00;-15917.19;5050954;28;51346;-49
2022/11/27 09:33:30;;;;;;;;;9.75;9.25;;;;;-147.17;100.00;-15917.19;5033354;28;52438;-45
2022/11/27 09:35:55;;;;;;;;;13.25;13.00;;;;;-147.17;100.00;-15917.19;5048766;28;51252;-48
2022/11/27 09:38:22;;;;;;;;;13.00;12.25;;;;;-147.17;100.00;-15917.19;5049081;28;51127;-49
2022/11/27 09:40:50;;;;;;;;;11.75;9.75;;;;;-147.17;100.00;-15917.19;5049757;28;51320;-47
2022/11/27 09:43:19;;;;;;;;;6.25;4.00;;;;;-147.17;100.00;-15917.19;5046093;28;51146;-48
2022/11/27 09:45:51;;;;;;;;;14.00;13.50;;;;;-147.17;100.00;-15917.19;5023246;28;51307;-47
2022/11/27 09:48:27;;;;;;;;;14.25;14.25;;;;;-147.17;100.00;-15917.19;5024316;28;51136;-46
2022/11/27 09:50:54;;;;;;;;;12.50;12.50;;;;;-147.17;100.00;-15917.19;5043004;28;51117;-46
2022/11/27 09:53:31;;;;;;;;;13.50;13.00;;;;;-147.17;100.00;-15917.19;5050649;28;51929;-46
2022/11/27 09:56:03;;;;;;;;;18.75;15.25;;;;;-147.17;100.00;-15917.19;5047532;28;51085;-49
2022/11/27 09:58:40;;;;;;;;;13.00;12.00;;;;;-147.17;100.00;-15917.19;5048772;28;51226;-44
2022/11/27 10:01:17;;;;;;;;;17.50;15.50;;;;;-147.17;100.00;-15917.19;5048728;28;51284;-48
2022/11/27 10:03:44;;;;;;;;;14.00;13.00;;;;;-147.17;100.00;-15917.19;5046780;28;51121;-48
2022/11/27 10:06:32;;;;;;;;;13.00;12.50;;;;;-147.17;100.00;-15917.19;5027983;28;51244;-46
2022/11/27 10:09:21;;;;;;;;;18.25;15.50;;;;;-147.17;100.00;-15917.19;5051927;28;51078;-47
2022/11/27 10:12:01;;;;;;;;;15.00;14.75;;;;;-147.17;100.00;-15917.19;5052051;28;51026;-50
2022/11/27 10:15:10;;;;;;;;;18.00;14.00;;;;;-147.17;100.00;-15917.19;5051637;28;52229;-46
2022/11/27 10:17:50;;;;;;;;;14.75;14.00;;;;;-147.17;100.00;-15917.19;5051756;28;51264;-44
2022/11/27 10:20:43;;;;;;;;;14.00;12.00;;;;;-147.17;100.00;-15917.19;5051954;28;50963;-46
2022/11/27 10:23:18;;;;;;;;;12.50;12.50;;;;;-147.17;100.00;-15917.19;5052530;28;51014;-48
2022/11/27 10:25:53;;;;;;;;;17.00;16.00;;;;;-147.17;100.00;-15917.19;5053035;28;51056;-50
2022/11/27 10:28:32;;;;;;;;;15.00;15.00;;;;;-147.17;100.00;-15917.19;5032001;28;51311;-47
2022/11/27 10:31:13;;;;;;;;;14.50;13.00;;;;;-147.17;100.00;-15917.19;5032027;28;51170;-46
2022/11/27 10:33:53;;;;;;;;;16.00;16.00;;;;;-147.17;100.00;-15917.19;5047968;28;51645;-46
2022/11/27 10:36:40;;;;;;;;;15.25;15.25;;;;;-147.17;100.00;-15917.19;5051931;28;52045;-52
2022/11/27 10:39:14;;;;;;;;;13.00;10.50;;;;;-147.17;100.00;-15917.19;5031185;28;51229;-47
2022/11/27 10:41:56;;;;;;;;;15.00;14.00;;;;;-147.17;100.00;-15917.19;5050987;28;51093;-47
2022/11/27 10:44:24;;;;;;;;;18.00;15.50;;;;;-147.17;100.00;-15917.19;5051535;28;50942;-48
2022/11/27 10:46:53;;;;;;;;;11.25;11.25;;;;;-147.17;100.00;-15917.19;5051223;28;52717;-49
2022/11/27 10:49:18;;;;;;;;;13.00;11.25;;;;;-147.17;100.00;-15917.19;5046196;28;51142;-49
2022/11/27 10:51:43;;;;;;;;;17.75;16.25;;;;;-147.17;100.00;-15917.19;5050748;28;51042;-48
2022/11/27 10:54:22;;;;;;;;;13.75;13.25;;;;;-147.17;100.00;-15917.19;5049725;28;50873;-49
2022/11/27 10:57:01;;;;;;;;;16.75;15.25;;;;;-147.17;100.00;-15917.19;5048966;28;52842;-52
2022/11/27 10:59:30;;;;;;;;;16.00;14.50;;;;;-147.17;100.00;-15917.19;5042860;28;51211;-48
2022/11/27 11:01:57;;;;;;;;;15.00;15.00;;;;;-147.17;100.00;-15917.19;5049740;28;51262;-48